createdAt,value
2019-05-29T00:01:15.768Z,4.67
2019-05-29T00:03:40.556Z,7.07
2019-05-29T00:06:10.469Z,7.10
2019-05-29T00:08:40.467Z,6.57
2019-05-29T00:11:10.439Z,6.63
2019-05-29T00:13:40.345Z,4.77
2019-05-29T00:16:10.708Z,4.90
2019-05-29T00:18:40.625Z,5.67
2019-05-29T00:21:11.670Z,5.37
2019-05-29T00:23:45.310Z,7.73
2019-05-29T00:26:15.288Z,4.80
2019-05-29T00:28:47.970Z,4.80
2019-05-29T00:31:18.711Z,6.57
2019-05-29T00:33:49.750Z,4.80
2019-05-29T00:36:19.724Z,7.20
2019-05-29T00:38:49.740Z,6.07
2019-05-29T00:41:21.938Z,6.50
2019-05-29T00:43:51.596Z,6.30
2019-05-29T00:46:21.606Z,6.23
2019-05-29T00:48:51.533Z,6.67
2019-05-29T00:51:21.808Z,6.27
2019-05-29T00:53:51.948Z,5.70
2019-05-29T00:56:21.944Z,5.67
2019-05-29T00:58:51.943Z,6.13
2019-05-29T01:01:22.497Z,6.70
2019-05-29T01:03:52.842Z,5.80
2019-05-29T01:06:23.293Z,5.43
2019-05-29T01:08:53.368Z,6.13
2019-05-29T01:11:23.372Z,5.57
2019-05-29T01:13:53.319Z,7.33
2019-05-29T01:16:23.358Z,6.70
2019-05-29T01:18:54.970Z,5.43
2019-05-29T01:21:25.178Z,5.63
2019-05-29T01:23:57.945Z,5.67
2019-05-29T01:26:28.177Z,6.23
2019-05-29T01:29:04.179Z,6.93
2019-05-29T01:31:35.554Z,5.67
2019-05-29T01:34:05.737Z,4.93
2019-05-29T01:36:36.348Z,4.80
2019-05-29T01:39:07.585Z,5.97
2019-05-29T01:41:37.611Z,5.57
2019-05-29T01:44:07.686Z,4.83
2019-05-29T01:46:37.645Z,6.33
2019-05-29T01:49:07.685Z,6.03
2019-05-29T01:51:38.125Z,5.60
2019-05-29T01:54:08.098Z,4.30
2019-05-29T01:56:38.269Z,7.93
2019-05-29T01:59:08.271Z,4.20
2019-05-29T02:01:38.195Z,5.73
2019-05-29T02:04:08.154Z,4.77
2019-05-29T02:06:38.133Z,9.10
2019-05-29T02:09:08.394Z,5.00
2019-05-29T02:11:38.374Z,4.60
2019-05-29T02:14:09.016Z,6.40
2019-05-29T02:16:39.176Z,5.00
2019-05-29T02:19:09.118Z,4.83
2019-05-29T02:21:39.099Z,6.20
2019-05-29T02:24:09.256Z,5.03
2019-05-29T02:26:39.185Z,6.17
2019-05-29T02:29:09.414Z,6.43
2019-05-29T02:31:39.306Z,6.17
2019-05-29T02:34:09.259Z,5.70
2019-05-29T02:36:39.480Z,5.93
2019-05-29T02:39:09.805Z,7.43
2019-05-29T02:41:39.754Z,5.90
2019-05-29T02:44:10.110Z,4.10
2019-05-29T02:46:40.114Z,4.87
2019-05-29T02:49:10.016Z,6.30
2019-05-29T02:51:43.544Z,4.83
2019-05-29T02:54:13.624Z,5.47
2019-05-29T02:56:43.600Z,6.53
2019-05-29T02:59:14.024Z,5.40
2019-05-29T03:01:43.910Z,5.67
2019-05-29T03:04:14.117Z,4.53
2019-05-29T03:06:45.539Z,7.87
2019-05-29T03:09:22.594Z,8.87
2019-05-29T03:11:52.569Z,10.53
2019-05-29T03:14:25.113Z,7.07
2019-05-29T03:17:01.246Z,5.67
2019-05-29T03:19:32.455Z,5.60
2019-05-29T03:22:05.100Z,5.60
2019-05-29T03:24:36.834Z,5.40
2019-05-29T03:27:06.855Z,5.03
2019-05-29T03:29:38.512Z,8.17
2019-05-29T03:32:13.801Z,8.70
2019-05-29T03:34:46.351Z,5.73
2019-05-29T03:37:12.546Z,5.27
2019-05-29T03:39:43.749Z,5.33
2019-05-29T03:42:14.052Z,9.67
2019-05-29T03:44:43.978Z,5.83
2019-05-29T03:47:13.898Z,6.67
2019-05-29T03:49:45.066Z,7.10
2019-05-29T03:52:15.085Z,8.57
2019-05-29T03:54:45.139Z,6.57
2019-05-29T03:57:15.341Z,7.43
2019-05-29T03:59:45.623Z,4.63
2019-05-29T04:02:15.540Z,6.50
2019-05-29T04:04:45.541Z,8.57
2019-05-29T04:07:15.475Z,6.80
2019-05-29T04:09:45.380Z,4.70
2019-05-29T04:12:18.833Z,7.03
2019-05-29T04:14:47.647Z,8.30
2019-05-29T04:17:21.097Z,5.53
2019-05-29T04:19:51.686Z,5.20
2019-05-29T04:22:25.345Z,7.07
2019-05-29T04:24:55.809Z,5.00
2019-05-29T04:27:31.981Z,7.30
2019-05-29T04:30:03.810Z,4.60
2019-05-29T04:32:34.287Z,6.70
2019-05-29T04:35:07.829Z,4.93
2019-05-29T04:37:39.855Z,4.43
2019-05-29T04:40:10.161Z,4.97
2019-05-29T04:42:40.815Z,3.17
2019-05-29T04:45:11.137Z,5.27
2019-05-29T04:47:41.086Z,4.70
2019-05-29T04:50:11.599Z,4.70
2019-05-29T04:52:42.335Z,3.70
2019-05-29T04:55:12.230Z,6.33
2019-05-29T04:57:42.486Z,3.47
2019-05-29T05:00:12.769Z,4.17
2019-05-29T05:02:44.060Z,4.77
2019-05-29T05:05:14.556Z,6.43
2019-05-29T05:07:44.474Z,6.07
2019-05-29T05:10:17.069Z,4.83
2019-05-29T05:12:47.625Z,3.70
2019-05-29T05:15:20.155Z,4.40
2019-05-29T05:17:57.216Z,4.23
2019-05-29T05:20:31.945Z,3.73
2019-05-29T05:23:02.666Z,3.10
2019-05-29T05:25:32.573Z,3.10
2019-05-29T05:28:02.583Z,3.73
2019-05-29T05:30:36.440Z,3.73
2019-05-29T05:33:06.680Z,5.07
2019-05-29T05:35:39.191Z,4.07
2019-05-29T05:38:09.141Z,3.70
2019-05-29T05:40:43.053Z,4.97
2019-05-29T05:43:24.556Z,3.83
2019-05-29T05:45:54.696Z,4.27
2019-05-29T05:48:24.736Z,4.33
2019-05-29T05:50:54.987Z,4.40
2019-05-29T05:53:25.097Z,6.83
2019-05-29T05:55:55.065Z,4.50
2019-05-29T05:58:25.303Z,4.77
2019-05-29T06:00:55.298Z,6.40
2019-05-29T06:03:25.255Z,5.50
2019-05-29T06:05:55.417Z,5.10
2019-05-29T06:08:25.392Z,4.00
2019-05-29T06:10:58.642Z,3.50
2019-05-29T06:13:28.755Z,3.00
2019-05-29T06:16:00.391Z,5.50
2019-05-29T06:18:30.385Z,2.83
2019-05-29T06:21:00.577Z,5.03
2019-05-29T06:23:30.629Z,6.33
2019-05-29T06:26:00.549Z,1.77
2019-05-29T06:28:30.609Z,4.17
2019-05-29T06:31:03.673Z,2.77
2019-05-29T06:33:35.199Z,3.07
2019-05-29T06:36:06.725Z,3.97
2019-05-29T06:38:37.634Z,3.43
2019-05-29T06:41:09.166Z,5.03
2019-05-29T06:43:39.855Z,4.07
2019-05-29T06:46:15.358Z,4.70
2019-05-29T06:48:59.020Z,4.47
2019-05-29T06:51:17.465Z,1.97
2019-05-29T06:53:48.314Z,2.87
2019-05-29T06:56:21.535Z,6.83
2019-05-29T06:58:53.935Z,1.83
2019-05-29T07:01:24.654Z,2.10
2019-05-29T07:04:11.442Z,2.77
2019-05-29T07:06:32.634Z,2.70
2019-05-29T07:09:03.070Z,3.97
2019-05-29T07:11:33.389Z,4.10
2019-05-29T07:14:03.477Z,1.40
2019-05-29T07:16:44.030Z,1.60
2019-05-29T07:19:24.819Z,4.20
2019-05-29T07:21:40.896Z,3.77
2019-05-29T07:24:14.501Z,2.60
2019-05-29T07:26:45.707Z,1.53
2019-05-29T07:29:16.047Z,4.03
2019-05-29T07:31:47.274Z,6.63
2019-05-29T07:34:20.238Z,4.03
2019-05-29T07:36:51.391Z,4.80
2019-05-29T07:39:26.210Z,8.00
2019-05-29T07:41:56.501Z,3.13
2019-05-29T07:44:29.786Z,5.40
2019-05-29T07:47:00.360Z,3.40
2019-05-29T07:49:39.149Z,4.00
2019-05-29T07:55:09.996Z,3.93
2019-05-29T07:57:40.847Z,4.33
2019-05-29T08:00:12.442Z,2.30
2019-05-29T08:02:43.370Z,3.47
2019-05-29T08:05:15.109Z,2.00
2019-05-29T08:07:45.522Z,3.17
2019-05-29T08:10:17.858Z,3.87
2019-05-29T08:12:55.230Z,3.43
2019-05-29T08:15:23.511Z,4.13
2019-05-29T08:17:56.537Z,1.93
2019-05-29T08:20:27.287Z,1.97
2019-05-29T08:23:00.330Z,1.73
2019-05-29T08:25:30.420Z,2.57
2019-05-29T08:28:03.729Z,2.80
2019-05-29T08:30:34.139Z,2.30
2019-05-29T08:33:04.216Z,1.53
2019-05-29T08:35:35.898Z,4.10
2019-05-29T08:38:06.506Z,4.60
2019-05-29T08:40:37.522Z,6.77
2019-05-29T08:43:07.970Z,5.00
2019-05-29T08:45:39.150Z,2.53
2019-05-29T08:48:09.985Z,2.00
2019-05-29T08:50:43.727Z,6.03
2019-05-29T08:53:15.142Z,2.50
2019-05-29T08:55:46.096Z,5.70
2019-05-29T08:58:17.211Z,2.93
2019-05-29T09:00:50.565Z,1.60
2019-05-29T09:03:18.883Z,1.87
2019-05-29T09:06:06.134Z,2.27
2019-05-29T09:08:25.260Z,3.03
2019-05-29T09:10:55.957Z,2.30
2019-05-29T09:13:26.467Z,1.30
2019-05-29T09:16:02.499Z,4.13
2019-05-29T09:18:32.583Z,1.53
2019-05-29T09:21:04.245Z,3.47
2019-05-29T09:23:36.316Z,3.57
2019-05-29T09:26:16.268Z,2.57
2019-05-29T09:28:38.406Z,3.33
2019-05-29T09:31:08.736Z,2.57
2019-05-29T09:33:39.158Z,5.43
2019-05-29T09:36:09.685Z,3.03
2019-05-29T09:38:40.105Z,1.10
2019-05-29T09:41:12.555Z,3.90
2019-05-29T09:43:57.666Z,1.67
2019-05-29T09:46:17.103Z,1.30
2019-05-29T09:48:49.998Z,1.93
2019-05-29T09:51:23.455Z,4.77
2019-05-29T09:53:54.345Z,5.40
2019-05-29T09:56:25.181Z,2.10
2019-05-29T09:58:56.562Z,1.13
2019-05-29T10:01:27.791Z,2.07
2019-05-29T10:04:03.047Z,1.10
2019-05-29T10:06:32.210Z,1.80
2019-05-29T10:09:06.963Z,1.10
2019-05-29T10:11:40.499Z,3.53
2019-05-29T10:14:10.893Z,1.27
2019-05-29T10:16:41.600Z,1.60
2019-05-29T10:19:11.827Z,2.10
2019-05-29T10:21:42.077Z,2.40
2019-05-29T10:24:24.107Z,2.47
2019-05-29T10:27:01.517Z,1.63
2019-05-29T10:29:31.546Z,2.63
2019-05-29T10:32:05.884Z,2.07
2019-05-29T10:34:36.035Z,4.53
2019-05-29T10:37:06.462Z,2.50
2019-05-29T10:39:36.739Z,1.87
2019-05-29T10:42:07.261Z,1.63
2019-05-29T10:44:37.535Z,1.30
2019-05-29T10:47:08.181Z,0.67
2019-05-29T10:49:39.558Z,3.80
2019-05-29T10:52:16.751Z,1.40
2019-05-29T10:54:48.134Z,2.10
2019-05-29T10:57:18.974Z,4.00
2019-05-29T10:59:52.882Z,1.70
2019-05-29T11:02:27.130Z,2.30
2019-05-29T11:04:59.477Z,1.93
2019-05-29T11:07:32.497Z,1.47
2019-05-29T11:10:02.512Z,1.73
2019-05-29T11:12:39.095Z,3.63
2019-05-29T11:18:09.318Z,3.70
2019-05-29T11:20:39.408Z,1.63
2019-05-29T11:23:11.526Z,1.80
2019-05-29T11:25:44.055Z,1.20
2019-05-29T11:28:19.548Z,1.87
2019-05-29T11:30:51.962Z,0.93
2019-05-29T11:33:24.424Z,1.80
2019-05-29T11:36:03.289Z,2.60
2019-05-29T11:38:26.805Z,1.57
2019-05-29T11:41:20.243Z,2.10
2019-05-29T11:43:31.062Z,1.40
2019-05-29T11:46:04.556Z,2.40
2019-05-29T11:48:44.117Z,2.73
2019-05-29T11:51:17.996Z,2.40
2019-05-29T11:53:57.822Z,1.70
2019-05-29T11:56:28.028Z,2.47
2019-05-29T11:59:05.836Z,1.50
2019-05-29T12:01:50.333Z,2.93
2019-05-29T12:04:25.501Z,3.97
2019-05-29T12:06:48.081Z,1.57
2019-05-29T12:09:32.090Z,1.53
2019-05-29T12:11:51.789Z,2.53
2019-05-29T12:14:22.567Z,3.70
2019-05-29T12:16:54.373Z,3.43
2019-05-29T12:19:27.399Z,2.63
2019-05-29T12:22:07.006Z,2.13
2019-05-29T12:24:37.370Z,3.50
2019-05-29T12:27:07.733Z,2.90
2019-05-29T12:29:40.700Z,2.60
2019-05-29T12:32:12.025Z,2.10
2019-05-29T12:34:53.658Z,2.80
2019-05-29T12:37:20.176Z,1.17
2019-05-29T12:39:57.439Z,2.57
2019-05-29T12:42:27.606Z,2.87
2019-05-29T12:44:59.491Z,0.90
2019-05-29T12:47:29.872Z,1.90
2019-05-29T12:50:00.550Z,1.50
2019-05-29T12:52:32.845Z,1.40
2019-05-29T12:55:04.227Z,1.90
2019-05-29T12:57:37.624Z,3.90
2019-05-29T13:00:14.231Z,4.50
2019-05-29T13:02:43.600Z,4.27
2019-05-29T13:05:20.913Z,3.00
2019-05-29T13:07:58.894Z,3.47
2019-05-29T13:10:31.549Z,1.17
2019-05-29T13:13:10.934Z,1.17
2019-05-29T13:15:48.163Z,1.03
2019-05-29T13:18:25.542Z,1.97
2019-05-29T13:20:58.834Z,2.07
2019-05-29T13:23:44.211Z,6.10
2019-05-29T13:26:04.191Z,2.10
2019-05-29T13:28:40.202Z,3.27
2019-05-29T13:31:13.890Z,3.30
2019-05-29T13:33:46.301Z,1.27
2019-05-29T13:36:20.245Z,1.73
2019-05-29T13:38:50.608Z,1.53
2019-05-29T13:41:29.819Z,1.50
2019-05-29T13:44:06.963Z,2.00
2019-05-29T13:46:37.394Z,1.20
2019-05-29T13:49:08.210Z,1.80
2019-05-29T13:51:38.911Z,1.33
2019-05-29T13:54:17.516Z,1.03
2019-05-29T13:56:55.684Z,1.90
2019-05-29T13:59:28.285Z,1.63
2019-05-29T14:02:04.288Z,1.20
2019-05-29T14:04:38.479Z,2.60
2019-05-29T14:07:13.142Z,3.20
2019-05-29T14:09:44.139Z,3.13
2019-05-29T14:12:20.043Z,1.47
2019-05-29T14:14:50.410Z,4.90
2019-05-29T14:17:21.412Z,1.10
2019-05-29T14:19:57.361Z,2.53
2019-05-29T14:22:29.377Z,1.47
2019-05-29T14:25:01.122Z,2.63
2019-05-29T14:27:31.830Z,3.43
2019-05-29T14:30:03.470Z,1.73
2019-05-29T14:32:34.278Z,2.80
2019-05-29T14:35:05.909Z,1.60
2019-05-29T14:37:36.729Z,1.27
2019-05-29T14:40:07.951Z,1.50
2019-05-29T14:42:44.248Z,2.50
2019-05-29T14:45:14.901Z,1.57
2019-05-29T14:47:50.025Z,2.60
2019-05-29T14:50:25.473Z,3.07
2019-05-29T14:53:00.456Z,2.80
2019-05-29T14:55:42.422Z,3.20
2019-05-29T14:58:12.562Z,3.40
2019-05-29T15:00:47.911Z,3.27
2019-05-29T15:03:17.896Z,1.20
2019-05-29T15:05:48.114Z,1.87
2019-05-29T15:08:18.511Z,3.67
2019-05-29T15:10:48.723Z,1.37
2019-05-29T15:13:19.035Z,3.90
2019-05-29T15:15:49.539Z,2.03
2019-05-29T15:18:19.644Z,4.03
2019-05-29T15:20:50.043Z,2.10
2019-05-29T15:23:23.421Z,2.10
2019-05-29T15:25:53.573Z,2.50
2019-05-29T15:28:27.222Z,9.53
2019-05-29T15:31:02.950Z,1.80
2019-05-29T15:33:32.988Z,19.43
2019-05-29T15:36:06.621Z,17.87
2019-05-29T15:38:37.217Z,76.07
2019-05-29T15:41:08.684Z,54.30
2019-05-29T15:43:39.347Z,12.80
2019-05-29T15:46:17.734Z,9.33
2019-05-29T15:48:53.772Z,5.63
2019-05-29T15:51:24.179Z,3.20
2019-05-29T15:53:54.618Z,3.17
2019-05-29T15:56:27.879Z,3.97
2019-05-29T15:58:57.316Z,20.63
2019-05-29T16:01:34.420Z,7.83
2019-05-29T16:04:23.821Z,2.87
2019-05-29T16:06:56.213Z,5.20
2019-05-29T16:09:26.536Z,2.60
2019-05-29T16:11:56.987Z,3.07
2019-05-29T16:14:27.108Z,2.00
2019-05-29T16:16:57.619Z,2.33
2019-05-29T16:19:31.444Z,2.03
2019-05-29T16:22:04.560Z,1.27
2019-05-29T16:24:39.954Z,1.87
2019-05-29T16:27:10.657Z,3.17
2019-05-29T16:29:42.581Z,1.87
2019-05-29T16:32:16.162Z,4.00
2019-05-29T16:34:49.798Z,1.43
2019-05-29T16:37:22.235Z,2.23
2019-05-29T16:39:52.892Z,5.30
2019-05-29T16:42:30.128Z,3.03
2019-05-29T16:45:20.486Z,3.07
2019-05-29T16:47:51.091Z,1.67
2019-05-29T16:50:29.651Z,1.70
2019-05-29T16:53:01.618Z,1.80
2019-05-29T16:55:35.190Z,2.70
2019-05-29T16:58:09.143Z,2.53
2019-05-29T17:00:39.292Z,3.13
2019-05-29T17:03:13.453Z,1.63
2019-05-29T17:05:44.864Z,3.30
2019-05-29T17:08:22.284Z,2.50
2019-05-29T17:10:52.872Z,4.40
2019-05-29T17:13:38.145Z,1.80
2019-05-29T17:16:14.970Z,3.93
2019-05-29T17:18:48.237Z,4.37
2019-05-29T17:21:20.662Z,3.03
2019-05-29T17:24:03.105Z,1.33
2019-05-29T17:26:36.068Z,2.60
2019-05-29T17:29:09.513Z,7.10
2019-05-29T17:31:44.606Z,3.70
2019-05-29T17:34:16.810Z,4.43
2019-05-29T17:36:49.422Z,4.03
2019-05-29T17:39:22.987Z,2.37
2019-05-29T17:41:56.901Z,5.37
2019-05-29T17:44:49.836Z,4.50
2019-05-29T17:47:29.965Z,3.43
2019-05-29T17:50:00.561Z,4.23
2019-05-29T17:52:31.290Z,4.00
2019-05-29T17:55:04.696Z,3.13
2019-05-29T17:57:35.618Z,2.73
2019-05-29T18:00:07.172Z,3.03
2019-05-29T18:02:51.895Z,2.80
2019-05-29T18:05:22.840Z,4.77
2019-05-29T18:07:55.394Z,5.20
2019-05-29T18:10:34.258Z,4.67
2019-05-29T18:13:08.429Z,1.83
2019-05-29T18:15:52.323Z,2.57
2019-05-29T18:18:28.474Z,3.47
2019-05-29T18:21:10.940Z,3.83
2019-05-29T18:23:48.750Z,2.93
2019-05-29T18:26:24.112Z,2.17
2019-05-29T18:29:40.828Z,3.93
2019-05-29T18:32:22.517Z,4.70
2019-05-29T18:34:58.220Z,3.57
2019-05-29T18:37:34.666Z,2.67
2019-05-29T18:40:12.918Z,3.50
2019-05-29T18:42:46.340Z,1.70
2019-05-29T18:45:21.545Z,2.30
2019-05-29T18:47:54.090Z,1.87
2019-05-29T18:50:36.931Z,1.50
2019-05-29T18:53:27.301Z,1.33
2019-05-29T18:57:13.841Z,1.77
2019-05-29T18:59:25.543Z,4.63
2019-05-29T19:02:03.521Z,1.57
2019-05-29T19:04:58.531Z,2.83
2019-05-29T19:07:29.812Z,1.43
2019-05-29T19:10:01.612Z,1.73
2019-05-29T19:12:35.212Z,1.87
2019-05-29T19:15:08.559Z,1.77
2019-05-29T19:17:39.506Z,2.23
2019-05-29T19:20:18.060Z,2.17
2019-05-29T19:22:48.969Z,2.50
2019-05-29T19:25:19.912Z,2.43
2019-05-29T19:27:52.415Z,6.13
2019-05-29T19:30:24.873Z,3.57
2019-05-29T19:33:01.736Z,3.70
2019-05-29T19:35:35.143Z,2.20
2019-05-29T19:38:06.396Z,2.50
2019-05-29T19:40:37.028Z,2.80
2019-05-29T19:43:07.441Z,1.87
2019-05-29T19:45:38.714Z,1.70
2019-05-29T19:48:14.371Z,2.63
2019-05-29T19:50:52.385Z,1.80
2019-05-29T19:53:24.662Z,2.97
2019-05-29T19:55:58.799Z,3.70
2019-05-29T19:58:36.137Z,4.63
2019-05-29T20:01:07.623Z,1.37
2019-05-29T20:03:42.550Z,2.70
2019-05-29T20:06:15.854Z,2.37
2019-05-29T20:08:46.060Z,2.23
2019-05-29T20:11:17.049Z,2.23
2019-05-29T20:13:48.648Z,2.97
2019-05-29T20:16:23.348Z,2.60
2019-05-29T20:18:53.737Z,3.20
2019-05-29T20:21:26.982Z,3.10
2019-05-29T20:24:02.064Z,3.60
2019-05-29T20:26:37.330Z,3.10
2019-05-29T20:29:10.571Z,3.60
2019-05-29T20:31:58.108Z,3.63
2019-05-29T20:34:28.751Z,3.40
2019-05-29T20:37:02.088Z,3.57
2019-05-29T20:39:33.086Z,3.30
2019-05-29T20:42:04.684Z,3.77
2019-05-29T20:44:38.601Z,3.60
2019-05-29T20:47:09.291Z,2.97
2019-05-29T20:49:46.682Z,4.83
2019-05-29T20:52:27.568Z,2.10
2019-05-29T20:54:58.891Z,3.30
2019-05-29T20:57:33.704Z,3.70
2019-05-29T21:00:21.792Z,2.83
2019-05-29T21:02:52.467Z,2.57
2019-05-29T21:05:23.301Z,4.13
2019-05-29T21:07:54.032Z,2.80
2019-05-29T21:10:49.027Z,5.00
2019-05-29T21:13:21.153Z,2.73
2019-05-29T21:15:56.759Z,6.07
2019-05-29T21:18:27.819Z,3.47
2019-05-29T21:21:05.261Z,5.80
2019-05-29T21:23:36.318Z,4.27
2019-05-29T21:26:08.394Z,2.40
2019-05-29T21:28:46.775Z,2.77
2019-05-29T21:31:22.005Z,1.93
2019-05-29T21:33:52.539Z,2.23
2019-05-29T21:36:23.528Z,3.17
2019-05-29T21:39:06.170Z,2.80
2019-05-29T21:41:38.381Z,4.97
2019-05-29T21:44:10.293Z,3.90
2019-05-29T21:46:43.035Z,3.90
2019-05-29T21:49:13.394Z,5.97
2019-05-29T21:51:49.752Z,5.00
2019-05-29T21:54:21.488Z,3.17
2019-05-29T21:56:51.592Z,3.63
2019-05-29T21:59:24.649Z,3.57
2019-05-29T22:01:58.609Z,3.93
2019-05-29T22:04:28.722Z,5.20
2019-05-29T22:06:59.381Z,4.70
2019-05-29T22:09:29.558Z,4.67
2019-05-29T22:12:02.906Z,3.97
2019-05-29T22:14:33.437Z,4.97
2019-05-29T22:17:03.929Z,5.43
2019-05-29T22:19:40.745Z,3.30
2019-05-29T22:22:17.152Z,18.27
2019-05-29T22:24:47.644Z,19.17
2019-05-29T22:27:25.051Z,10.73
2019-05-29T22:29:55.532Z,6.93
2019-05-29T22:32:26.456Z,7.23
2019-05-29T22:34:57.718Z,4.77
2019-05-29T22:37:27.921Z,11.87
2019-05-29T22:40:15.558Z,5.07
2019-05-29T22:42:45.631Z,6.50
2019-05-29T22:45:16.427Z,7.67
2019-05-29T22:47:46.753Z,8.97
2019-05-29T22:50:17.114Z,7.30
2019-05-29T22:52:55.842Z,17.37
2019-05-29T22:55:27.799Z,19.20
2019-05-29T22:58:00.411Z,23.57
2019-05-29T23:00:30.589Z,31.63
2019-05-29T23:03:02.426Z,34.73
2019-05-29T23:05:34.554Z,29.40
2019-05-29T23:08:09.917Z,18.17
2019-05-29T23:10:40.029Z,15.03
2019-05-29T23:13:10.238Z,12.63
2019-05-29T23:15:40.488Z,12.77
2019-05-29T23:18:13.938Z,7.43
2019-05-29T23:20:46.149Z,5.07
2019-05-29T23:23:18.952Z,7.50
2019-05-29T23:25:52.460Z,6.90
2019-05-29T23:28:22.692Z,6.70
2019-05-29T23:30:59.076Z,4.90
2019-05-29T23:33:32.545Z,5.10
2019-05-29T23:36:03.234Z,5.20
2019-05-29T23:38:33.756Z,5.93
2019-05-29T23:41:04.146Z,5.40
2019-05-29T23:43:34.292Z,6.90
2019-05-29T23:46:11.678Z,4.73
2019-05-29T23:48:45.861Z,9.73
2019-05-29T23:51:22.681Z,6.63
2019-05-29T23:53:55.585Z,4.83
2019-05-29T23:56:25.867Z,8.03
2019-05-29T23:58:55.919Z,6.20
